sensor_id;sensor_type;location;lat;lon;timestamp;P1;durP1;ratioP1;P2;durP2;ratioP2
69046;SDS011;57261;47.504;19.084;2022-11-14T00:01:41;33.20;;;18.20;;
69046;SDS011;57261;47.504;19.084;2022-11-14T00:04:46;34.87;;;18.93;;
69046;SDS011;57261;47.504;19.084;2022-11-14T00:07:47;40.83;;;21.45;;
69046;SDS011;57261;47.504;19.084;2022-11-14T00:10:48;34.47;;;18.73;;
69046;SDS011;57261;47.504;19.084;2022-11-14T00:13:49;36.50;;;19.60;;
69046;SDS011;57261;47.504;19.084;2022-11-14T00:16:50;36.07;;;19.03;;
69046;SDS011;57261;47.504;19.084;2022-11-14T00:19:50;32.88;;;18.30;;
69046;SDS011;57261;47.504;19.084;2022-11-14T00:22:50;35.33;;;19.20;;
69046;SDS011;57261;47.504;19.084;2022-11-14T00:25:51;31.67;;;16.80;;
69046;SDS011;57261;47.504;19.084;2022-11-14T00:28:52;32.13;;;17.73;;
69046;SDS011;57261;47.504;19.084;2022-11-14T00:31:53;35.92;;;19.40;;
69046;SDS011;57261;47.504;19.084;2022-11-14T00:34:54;34.28;;;18.80;;
69046;SDS011;57261;47.504;19.084;2022-11-14T00:37:54;33.63;;;18.10;;
69046;SDS011;57261;47.504;19.084;2022-11-14T00:40:54;32.40;;;18.10;;
69046;SDS011;57261;47.504;19.084;2022-11-14T00:43:55;38.60;;;20.80;;
69046;SDS011;57261;47.504;19.084;2022-11-14T00:46:55;37.77;;;19.80;;
69046;SDS011;57261;47.504;19.084;2022-11-14T00:49:56;34.33;;;18.97;;
69046;SDS011;57261;47.504;19.084;2022-11-14T00:52:56;31.30;;;17.83;;
69046;SDS011;57261;47.504;19.084;2022-11-14T00:55:56;32.63;;;17.77;;
69046;SDS011;57261;47.504;19.084;2022-11-14T00:58:57;31.42;;;17.55;;
69046;SDS011;57261;47.504;19.084;2022-11-14T01:01:57;31.03;;;17.63;;
69046;SDS011;57261;47.504;19.084;2022-11-14T01:04:58;30.07;;;16.60;;
69046;SDS011;57261;47.504;19.084;2022-11-14T01:07:59;31.10;;;17.77;;
69046;SDS011;57261;47.504;19.084;2022-11-14T01:10:59;30.80;;;16.30;;
69046;SDS011;57261;47.504;19.084;2022-11-14T01:13:59;30.77;;;16.70;;
69046;SDS011;57261;47.504;19.084;2022-11-14T01:17:00;33.10;;;16.70;;
69046;SDS011;57261;47.504;19.084;2022-11-14T01:20:00;32.30;;;17.77;;
69046;SDS011;57261;47.504;19.084;2022-11-14T01:23:00;32.53;;;16.95;;
69046;SDS011;57261;47.504;19.084;2022-11-14T01:26:05;33.53;;;17.73;;
69046;SDS011;57261;47.504;19.084;2022-11-14T01:29:08;31.43;;;17.03;;
69046;SDS011;57261;47.504;19.084;2022-11-14T01:32:09;36.40;;;18.93;;
69046;SDS011;57261;47.504;19.084;2022-11-14T01:35:12;32.60;;;17.30;;
69046;SDS011;57261;47.504;19.084;2022-11-14T01:38:13;32.73;;;18.03;;
69046;SDS011;57261;47.504;19.084;2022-11-14T01:41:14;33.53;;;18.15;;
69046;SDS011;57261;47.504;19.084;2022-11-14T01:44:16;32.60;;;17.27;;
69046;SDS011;57261;47.504;19.084;2022-11-14T01:47:37;29.60;;;15.13;;
69046;SDS011;57261;47.504;19.084;2022-11-14T01:50:38;30.45;;;16.65;;
69046;SDS011;57261;47.504;19.084;2022-11-14T01:53:38;30.13;;;16.20;;
69046;SDS011;57261;47.504;19.084;2022-11-14T01:56:41;29.67;;;16.30;;
69046;SDS011;57261;47.504;19.084;2022-11-14T01:59:46;33.47;;;18.30;;
69046;SDS011;57261;47.504;19.084;2022-11-14T02:02:51;29.17;;;16.70;;
69046;SDS011;57261;47.504;19.084;2022-11-14T02:05:52;31.02;;;16.42;;
69046;SDS011;57261;47.504;19.084;2022-11-14T02:08:54;30.02;;;15.95;;
69046;SDS011;57261;47.504;19.084;2022-11-14T02:12:00;26.77;;;15.27;;
69046;SDS011;57261;47.504;19.084;2022-11-14T02:15:02;29.83;;;16.95;;
69046;SDS011;57261;47.504;19.084;2022-11-14T02:18:03;28.70;;;15.88;;
69046;SDS011;57261;47.504;19.084;2022-11-14T02:21:04;28.48;;;15.82;;
69046;SDS011;57261;47.504;19.084;2022-11-14T02:24:07;29.33;;;16.47;;
69046;SDS011;57261;47.504;19.084;2022-11-14T02:27:12;27.25;;;15.50;;
69046;SDS011;57261;47.504;19.084;2022-11-14T02:30:16;27.90;;;16.27;;
69046;SDS011;57261;47.504;19.084;2022-11-14T02:33:19;25.35;;;15.18;;
69046;SDS011;57261;47.504;19.084;2022-11-14T02:36:20;26.07;;;14.50;;
69046;SDS011;57261;47.504;19.084;2022-11-14T02:39:21;26.70;;;15.27;;
69046;SDS011;57261;47.504;19.084;2022-11-14T02:42:23;23.48;;;13.95;;
69046;SDS011;57261;47.504;19.084;2022-11-14T02:45:24;25.57;;;14.80;;
69046;SDS011;57261;47.504;19.084;2022-11-14T02:48:24;22.83;;;14.38;;
69046;SDS011;57261;47.504;19.084;2022-11-14T02:51:25;24.57;;;14.57;;
69046;SDS011;57261;47.504;19.084;2022-11-14T02:54:28;24.30;;;14.27;;
69046;SDS011;57261;47.504;19.084;2022-11-14T02:57:29;23.40;;;13.30;;
69046;SDS011;57261;47.504;19.084;2022-11-14T03:00:29;23.40;;;13.60;;
69046;SDS011;57261;47.504;19.084;2022-11-14T03:03:30;22.57;;;12.97;;
69046;SDS011;57261;47.504;19.084;2022-11-14T03:06:30;23.35;;;13.98;;
69046;SDS011;57261;47.504;19.084;2022-11-14T03:09:30;24.30;;;14.43;;
69046;SDS011;57261;47.504;19.084;2022-11-14T03:12:31;21.37;;;13.30;;
69046;SDS011;57261;47.504;19.084;2022-11-14T03:15:35;23.20;;;13.53;;
69046;SDS011;57261;47.504;19.084;2022-11-14T03:18:36;23.13;;;12.80;;
69046;SDS011;57261;47.504;19.084;2022-11-14T03:21:37;21.50;;;13.35;;
69046;SDS011;57261;47.504;19.084;2022-11-14T03:24:40;21.70;;;12.75;;
69046;SDS011;57261;47.504;19.084;2022-11-14T03:27:41;23.03;;;13.07;;
69046;SDS011;57261;47.504;19.084;2022-11-14T03:30:41;21.87;;;13.67;;
69046;SDS011;57261;47.504;19.084;2022-11-14T03:33:41;21.03;;;12.87;;
69046;SDS011;57261;47.504;19.084;2022-11-14T03:36:42;20.53;;;12.40;;
69046;SDS011;57261;47.504;19.084;2022-11-14T03:39:43;24.33;;;13.10;;
69046;SDS011;57261;47.504;19.084;2022-11-14T03:42:43;22.30;;;13.23;;
69046;SDS011;57261;47.504;19.084;2022-11-14T03:45:44;31.07;;;18.27;;
69046;SDS011;57261;47.504;19.084;2022-11-14T03:48:44;30.55;;;17.88;;
69046;SDS011;57261;47.504;19.084;2022-11-14T03:51:45;22.43;;;13.57;;
69046;SDS011;57261;47.504;19.084;2022-11-14T03:54:45;27.33;;;16.03;;
69046;SDS011;57261;47.504;19.084;2022-11-14T03:57:46;22.43;;;13.17;;
69046;SDS011;57261;47.504;19.084;2022-11-14T04:00:46;20.63;;;12.50;;
69046;SDS011;57261;47.504;19.084;2022-11-14T04:03:46;22.17;;;13.30;;
69046;SDS011;57261;47.504;19.084;2022-11-14T04:06:47;22.95;;;13.65;;
69046;SDS011;57261;47.504;19.084;2022-11-14T04:09:47;23.45;;;13.27;;
69046;SDS011;57261;47.504;19.084;2022-11-14T04:12:48;22.30;;;13.40;;
69046;SDS011;57261;47.504;19.084;2022-11-14T04:15:56;23.20;;;13.45;;
69046;SDS011;57261;47.504;19.084;2022-11-14T04:18:58;23.08;;;14.32;;
69046;SDS011;57261;47.504;19.084;2022-11-14T04:21:59;23.02;;;13.80;;
69046;SDS011;57261;47.504;19.084;2022-11-14T04:24:59;26.03;;;14.90;;
69046;SDS011;57261;47.504;19.084;2022-11-14T04:27:59;76.87;;;47.73;;
69046;SDS011;57261;47.504;19.084;2022-11-14T04:31:00;29.73;;;17.67;;
69046;SDS011;57261;47.504;19.084;2022-11-14T04:34:01;24.48;;;14.52;;
69046;SDS011;57261;47.504;19.084;2022-11-14T04:37:02;26.00;;;15.07;;
69046;SDS011;57261;47.504;19.084;2022-11-14T04:40:03;24.85;;;13.68;;
69046;SDS011;57261;47.504;19.084;2022-11-14T04:43:04;23.00;;;14.00;;
69046;SDS011;57261;47.504;19.084;2022-11-14T04:46:04;24.02;;;13.80;;
69046;SDS011;57261;47.504;19.084;2022-11-14T04:49:05;44.17;;;25.30;;
69046;SDS011;57261;47.504;19.084;2022-11-14T04:52:05;25.03;;;14.87;;
69046;SDS011;57261;47.504;19.084;2022-11-14T04:55:06;23.40;;;14.10;;
69046;SDS011;57261;47.504;19.084;2022-11-14T04:58:07;23.35;;;14.00;;
69046;SDS011;57261;47.504;19.084;2022-11-14T05:01:11;30.58;;;19.23;;
69046;SDS011;57261;47.504;19.084;2022-11-14T05:04:13;25.17;;;14.55;;
69046;SDS011;57261;47.504;19.084;2022-11-14T05:07:14;20.60;;;13.13;;
69046;SDS011;57261;47.504;19.084;2022-11-14T05:10:14;22.03;;;12.73;;
69046;SDS011;57261;47.504;19.084;2022-11-14T05:13:15;23.98;;;14.50;;
69046;SDS011;57261;47.504;19.084;2022-11-14T05:16:15;22.55;;;13.30;;
69046;SDS011;57261;47.504;19.084;2022-11-14T05:19:16;21.67;;;12.27;;
69046;SDS011;57261;47.504;19.084;2022-11-14T05:22:16;23.10;;;13.53;;
69046;SDS011;57261;47.504;19.084;2022-11-14T05:25:16;24.57;;;14.40;;
69046;SDS011;57261;47.504;19.084;2022-11-14T05:28:17;24.07;;;14.03;;
69046;SDS011;57261;47.504;19.084;2022-11-14T05:31:17;21.40;;;13.07;;
69046;SDS011;57261;47.504;19.084;2022-11-14T05:34:18;22.63;;;13.75;;
69046;SDS011;57261;47.504;19.084;2022-11-14T05:37:18;21.73;;;13.13;;
69046;SDS011;57261;47.504;19.084;2022-11-14T05:40:19;21.90;;;13.57;;
69046;SDS011;57261;47.504;19.084;2022-11-14T05:43:19;23.00;;;13.63;;
69046;SDS011;57261;47.504;19.084;2022-11-14T05:46:19;24.73;;;14.73;;
69046;SDS011;57261;47.504;19.084;2022-11-14T05:49:21;28.02;;;17.35;;
69046;SDS011;57261;47.504;19.084;2022-11-14T05:52:22;25.20;;;15.00;;
69046;SDS011;57261;47.504;19.084;2022-11-14T05:55:22;28.10;;;16.40;;
69046;SDS011;57261;47.504;19.084;2022-11-14T05:58:23;23.70;;;14.63;;
69046;SDS011;57261;47.504;19.084;2022-11-14T06:01:23;23.13;;;13.50;;
69046;SDS011;57261;47.504;19.084;2022-11-14T06:04:23;22.67;;;13.73;;
69046;SDS011;57261;47.504;19.084;2022-11-14T06:07:24;20.60;;;13.37;;
69046;SDS011;57261;47.504;19.084;2022-11-14T06:10:25;21.35;;;12.30;;
69046;SDS011;57261;47.504;19.084;2022-11-14T06:13:25;21.88;;;11.98;;
69046;SDS011;57261;47.504;19.084;2022-11-14T06:16:26;21.50;;;12.43;;
69046;SDS011;57261;47.504;19.084;2022-11-14T06:19:26;21.60;;;13.00;;
69046;SDS011;57261;47.504;19.084;2022-11-14T06:22:26;23.73;;;14.43;;
69046;SDS011;57261;47.504;19.084;2022-11-14T06:25:27;23.92;;;13.45;;
69046;SDS011;57261;47.504;19.084;2022-11-14T06:28:27;24.77;;;13.60;;
69046;SDS011;57261;47.504;19.084;2022-11-14T06:31:28;25.83;;;14.67;;
69046;SDS011;57261;47.504;19.084;2022-11-14T06:34:28;25.80;;;14.83;;
69046;SDS011;57261;47.504;19.084;2022-11-14T06:37:28;24.43;;;13.23;;
69046;SDS011;57261;47.504;19.084;2022-11-14T06:40:29;32.50;;;18.17;;
69046;SDS011;57261;47.504;19.084;2022-11-14T06:43:31;32.90;;;19.17;;
69046;SDS011;57261;47.504;19.084;2022-11-14T06:46:35;31.23;;;17.73;;
69046;SDS011;57261;47.504;19.084;2022-11-14T06:49:35;29.60;;;16.57;;
69046;SDS011;57261;47.504;19.084;2022-11-14T06:52:36;26.33;;;15.63;;
69046;SDS011;57261;47.504;19.084;2022-11-14T06:55:36;24.65;;;14.52;;
69046;SDS011;57261;47.504;19.084;2022-11-14T06:58:38;26.08;;;16.08;;
69046;SDS011;57261;47.504;19.084;2022-11-14T07:01:40;28.00;;;16.50;;
69046;SDS011;57261;47.504;19.084;2022-11-14T07:04:40;29.17;;;17.43;;
69046;SDS011;57261;47.504;19.084;2022-11-14T07:07:40;32.67;;;18.23;;
69046;SDS011;57261;47.504;19.084;2022-11-14T07:10:41;30.20;;;18.77;;
69046;SDS011;57261;47.504;19.084;2022-11-14T07:13:41;30.13;;;17.33;;
69046;SDS011;57261;47.504;19.084;2022-11-14T07:16:45;27.30;;;16.55;;
69046;SDS011;57261;47.504;19.084;2022-11-14T07:19:46;24.60;;;14.53;;
69046;SDS011;57261;47.504;19.084;2022-11-14T07:22:46;25.45;;;14.85;;
69046;SDS011;57261;47.504;19.084;2022-11-14T07:25:47;31.08;;;18.38;;
69046;SDS011;57261;47.504;19.084;2022-11-14T07:28:48;27.77;;;16.60;;
69046;SDS011;57261;47.504;19.084;2022-11-14T07:31:48;27.13;;;16.80;;
69046;SDS011;57261;47.504;19.084;2022-11-14T07:34:49;26.47;;;15.73;;
69046;SDS011;57261;47.504;19.084;2022-11-14T07:37:49;26.27;;;15.17;;
69046;SDS011;57261;47.504;19.084;2022-11-14T07:40:53;31.30;;;17.88;;
69046;SDS011;57261;47.504;19.084;2022-11-14T07:43:58;31.00;;;18.23;;
69046;SDS011;57261;47.504;19.084;2022-11-14T07:46:58;28.02;;;16.77;;
69046;SDS011;57261;47.504;19.084;2022-11-14T07:49:59;35.87;;;20.53;;
69046;SDS011;57261;47.504;19.084;2022-11-14T07:52:59;33.90;;;19.03;;
69046;SDS011;57261;47.504;19.084;2022-11-14T07:56:06;34.53;;;20.10;;
69046;SDS011;57261;47.504;19.084;2022-11-14T07:59:10;30.48;;;17.70;;
69046;SDS011;57261;47.504;19.084;2022-11-14T08:02:12;27.63;;;15.83;;
69046;SDS011;57261;47.504;19.084;2022-11-14T08:05:13;28.05;;;17.42;;
69046;SDS011;57261;47.504;19.084;2022-11-14T08:08:14;33.07;;;19.90;;
69046;SDS011;57261;47.504;19.084;2022-11-14T08:11:14;35.53;;;19.83;;
69046;SDS011;57261;47.504;19.084;2022-11-14T08:14:15;35.20;;;20.15;;
69046;SDS011;57261;47.504;19.084;2022-11-14T08:17:15;35.10;;;21.27;;
69046;SDS011;57261;47.504;19.084;2022-11-14T08:20:16;35.67;;;20.20;;
69046;SDS011;57261;47.504;19.084;2022-11-14T08:23:21;29.90;;;18.35;;
69046;SDS011;57261;47.504;19.084;2022-11-14T08:26:22;30.33;;;17.70;;
69046;SDS011;57261;47.504;19.084;2022-11-14T08:29:22;34.23;;;19.60;;
69046;SDS011;57261;47.504;19.084;2022-11-14T08:32:24;31.45;;;18.52;;
69046;SDS011;57261;47.504;19.084;2022-11-14T08:35:25;34.93;;;20.63;;
69046;SDS011;57261;47.504;19.084;2022-11-14T08:38:25;35.00;;;20.40;;
69046;SDS011;57261;47.504;19.084;2022-11-14T08:41:25;30.77;;;18.83;;
69046;SDS011;57261;47.504;19.084;2022-11-14T08:44:26;38.30;;;22.20;;
69046;SDS011;57261;47.504;19.084;2022-11-14T08:47:26;40.80;;;23.33;;
69046;SDS011;57261;47.504;19.084;2022-11-14T08:50:28;42.10;;;22.95;;
69046;SDS011;57261;47.504;19.084;2022-11-14T08:53:28;36.67;;;21.03;;
69046;SDS011;57261;47.504;19.084;2022-11-14T08:56:29;36.80;;;21.88;;
69046;SDS011;57261;47.504;19.084;2022-11-14T08:59:31;36.80;;;21.67;;
69046;SDS011;57261;47.504;19.084;2022-11-14T09:02:31;39.30;;;23.02;;
69046;SDS011;57261;47.504;19.084;2022-11-14T09:05:32;38.23;;;23.23;;
69046;SDS011;57261;47.504;19.084;2022-11-14T09:08:32;35.30;;;21.50;;
69046;SDS011;57261;47.504;19.084;2022-11-14T09:11:33;39.47;;;22.05;;
69046;SDS011;57261;47.504;19.084;2022-11-14T09:14:33;39.70;;;23.60;;
69046;SDS011;57261;47.504;19.084;2022-11-14T09:17:33;43.90;;;23.87;;
69046;SDS011;57261;47.504;19.084;2022-11-14T09:20:34;44.73;;;24.93;;
69046;SDS011;57261;47.504;19.084;2022-11-14T09:23:34;42.43;;;24.43;;
69046;SDS011;57261;47.504;19.084;2022-11-14T09:26:35;41.80;;;23.27;;
69046;SDS011;57261;47.504;19.084;2022-11-14T09:29:35;42.60;;;24.73;;
69046;SDS011;57261;47.504;19.084;2022-11-14T09:32:36;44.33;;;25.17;;
69046;SDS011;57261;47.504;19.084;2022-11-14T09:35:36;42.00;;;24.13;;
69046;SDS011;57261;47.504;19.084;2022-11-14T09:38:37;45.67;;;25.43;;
69046;SDS011;57261;47.504;19.084;2022-11-14T09:45:02;42.53;;;24.80;;
69046;SDS011;57261;47.504;19.084;2022-11-14T09:48:13;43.10;;;25.10;;
69046;SDS011;57261;47.504;19.084;2022-11-14T09:51:21;40.47;;;24.05;;
69046;SDS011;57261;47.504;19.084;2022-11-14T09:54:25;45.10;;;25.23;;
69046;SDS011;57261;47.504;19.084;2022-11-14T09:57:27;43.22;;;25.38;;
69046;SDS011;57261;47.504;19.084;2022-11-14T10:00:28;43.85;;;25.10;;
69046;SDS011;57261;47.504;19.084;2022-11-14T10:03:47;45.63;;;25.53;;
69046;SDS011;57261;47.504;19.084;2022-11-14T10:07:05;41.28;;;23.83;;
69046;SDS011;57261;47.504;19.084;2022-11-14T10:20:26;38.10;;;24.20;;
69046;SDS011;57261;47.504;19.084;2022-11-14T10:23:56;40.28;;;25.35;;
69046;SDS011;57261;47.504;19.084;2022-11-14T10:27:05;38.33;;;24.48;;
69046;SDS011;57261;47.504;19.084;2022-11-14T10:30:13;44.57;;;26.83;;
69046;SDS011;57261;47.504;19.084;2022-11-14T10:39:46;41.78;;;25.90;;
69046;SDS011;57261;47.504;19.084;2022-11-14T10:42:54;40.03;;;25.23;;
69046;SDS011;57261;47.504;19.084;2022-11-14T10:49:39;38.33;;;24.27;;
69046;SDS011;57261;47.504;19.084;2022-11-14T10:52:41;38.60;;;24.25;;
69046;SDS011;57261;47.504;19.084;2022-11-14T10:55:48;37.23;;;24.37;;
69046;SDS011;57261;47.504;19.084;2022-11-14T10:58:50;37.65;;;23.80;;
69046;SDS011;57261;47.504;19.084;2022-11-14T11:04:57;38.72;;;24.40;;
69046;SDS011;57261;47.504;19.084;2022-11-14T11:08:11;39.78;;;25.27;;
69046;SDS011;57261;47.504;19.084;2022-11-14T11:11:31;36.83;;;24.60;;
69046;SDS011;57261;47.504;19.084;2022-11-14T11:14:31;37.70;;;24.38;;
69046;SDS011;57261;47.504;19.084;2022-11-14T11:17:33;36.80;;;24.13;;
69046;SDS011;57261;47.504;19.084;2022-11-14T11:20:37;38.60;;;24.73;;
69046;SDS011;57261;47.504;19.084;2022-11-14T11:23:53;39.67;;;24.50;;
69046;SDS011;57261;47.504;19.084;2022-11-14T11:30:27;39.95;;;25.05;;
69046;SDS011;57261;47.504;19.084;2022-11-14T11:33:29;38.47;;;25.00;;
69046;SDS011;57261;47.504;19.084;2022-11-14T11:36:31;39.03;;;24.75;;
69046;SDS011;57261;47.504;19.084;2022-11-14T11:39:42;39.07;;;24.67;;
69046;SDS011;57261;47.504;19.084;2022-11-14T11:43:01;38.35;;;23.48;;
69046;SDS011;57261;47.504;19.084;2022-11-14T11:46:13;35.83;;;23.60;;
69046;SDS011;57261;47.504;19.084;2022-11-14T11:52:41;38.53;;;24.27;;
69046;SDS011;57261;47.504;19.084;2022-11-14T11:55:48;36.85;;;24.73;;
69046;SDS011;57261;47.504;19.084;2022-11-14T11:58:54;36.38;;;23.63;;
69046;SDS011;57261;47.504;19.084;2022-11-14T12:02:02;35.92;;;24.08;;
69046;SDS011;57261;47.504;19.084;2022-11-14T12:12:05;35.63;;;23.90;;
69046;SDS011;57261;47.504;19.084;2022-11-14T12:15:22;37.78;;;23.52;;
69046;SDS011;57261;47.504;19.084;2022-11-14T12:21:48;36.28;;;23.30;;
69046;SDS011;57261;47.504;19.084;2022-11-14T12:25:03;37.17;;;23.73;;
69046;SDS011;57261;47.504;19.084;2022-11-14T12:32:32;38.67;;;23.35;;
69046;SDS011;57261;47.504;19.084;2022-11-14T12:35:46;36.70;;;21.92;;
69046;SDS011;57261;47.504;19.084;2022-11-14T12:38:52;36.38;;;23.20;;
69046;SDS011;57261;47.504;19.084;2022-11-14T12:42:03;36.58;;;23.27;;
69046;SDS011;57261;47.504;19.084;2022-11-14T12:46:07;37.17;;;23.37;;
69046;SDS011;57261;47.504;19.084;2022-11-14T12:48:40;36.42;;;22.88;;
69046;SDS011;57261;47.504;19.084;2022-11-14T12:54:45;37.88;;;23.02;;
69046;SDS011;57261;47.504;19.084;2022-11-14T13:01:04;38.25;;;23.13;;
69046;SDS011;57261;47.504;19.084;2022-11-14T13:10:59;35.70;;;21.10;;
69046;SDS011;57261;47.504;19.084;2022-11-14T13:14:00;35.50;;;20.88;;
69046;SDS011;57261;47.504;19.084;2022-11-14T13:17:25;39.20;;;23.10;;
69046;SDS011;57261;47.504;19.084;2022-11-14T13:20:59;35.67;;;22.30;;
69046;SDS011;57261;47.504;19.084;2022-11-14T13:24:20;34.47;;;19.95;;
69046;SDS011;57261;47.504;19.084;2022-11-14T13:37:51;33.38;;;20.45;;
69046;SDS011;57261;47.504;19.084;2022-11-14T13:51:15;29.90;;;17.13;;
69046;SDS011;57261;47.504;19.084;2022-11-14T13:54:17;29.00;;;18.38;;
69046;SDS011;57261;47.504;19.084;2022-11-14T14:00:49;28.73;;;17.83;;
69046;SDS011;57261;47.504;19.084;2022-11-14T14:07:46;29.17;;;17.10;;
69046;SDS011;57261;47.504;19.084;2022-11-14T14:14:33;28.93;;;17.47;;
69046;SDS011;57261;47.504;19.084;2022-11-14T14:21:23;26.85;;;16.00;;
69046;SDS011;57261;47.504;19.084;2022-11-14T14:31:11;27.15;;;16.40;;
69046;SDS011;57261;47.504;19.084;2022-11-14T14:34:22;26.52;;;15.93;;
69046;SDS011;57261;47.504;19.084;2022-11-14T14:37:25;24.48;;;15.65;;
69046;SDS011;57261;47.504;19.084;2022-11-14T14:40:35;24.13;;;15.30;;
69046;SDS011;57261;47.504;19.084;2022-11-14T14:43:38;26.63;;;15.52;;
69046;SDS011;57261;47.504;19.084;2022-11-14T14:46:41;25.50;;;16.17;;
69046;SDS011;57261;47.504;19.084;2022-11-14T14:49:45;24.53;;;15.07;;
69046;SDS011;57261;47.504;19.084;2022-11-14T14:52:45;26.60;;;16.45;;
69046;SDS011;57261;47.504;19.084;2022-11-14T14:55:56;27.23;;;15.73;;
69046;SDS011;57261;47.504;19.084;2022-11-14T14:58:58;26.38;;;16.67;;
69046;SDS011;57261;47.504;19.084;2022-11-14T15:02:16;28.38;;;17.27;;
69046;SDS011;57261;47.504;19.084;2022-11-14T15:05:22;27.38;;;17.35;;
69046;SDS011;57261;47.504;19.084;2022-11-14T15:08:23;29.88;;;16.33;;
69046;SDS011;57261;47.504;19.084;2022-11-14T15:11:25;27.83;;;16.23;;
69046;SDS011;57261;47.504;19.084;2022-11-14T15:14:28;25.92;;;16.95;;
69046;SDS011;57261;47.504;19.084;2022-11-14T15:17:31;29.00;;;16.23;;
69046;SDS011;57261;47.504;19.084;2022-11-14T15:20:31;28.10;;;17.63;;
69046;SDS011;57261;47.504;19.084;2022-11-14T15:23:36;27.42;;;16.48;;
69046;SDS011;57261;47.504;19.084;2022-11-14T15:26:37;26.88;;;16.83;;
69046;SDS011;57261;47.504;19.084;2022-11-14T15:29:45;26.80;;;16.75;;
69046;SDS011;57261;47.504;19.084;2022-11-14T15:32:51;27.92;;;17.30;;
69046;SDS011;57261;47.504;19.084;2022-11-14T15:36:10;29.90;;;16.60;;
69046;SDS011;57261;47.504;19.084;2022-11-14T15:39:26;28.73;;;17.25;;
69046;SDS011;57261;47.504;19.084;2022-11-14T15:42:27;27.50;;;17.08;;
69046;SDS011;57261;47.504;19.084;2022-11-14T15:45:37;26.40;;;16.63;;
69046;SDS011;57261;47.504;19.084;2022-11-14T15:48:39;27.70;;;16.55;;
69046;SDS011;57261;47.504;19.084;2022-11-14T15:51:50;29.48;;;18.58;;
69046;SDS011;57261;47.504;19.084;2022-11-14T15:54:51;28.57;;;18.40;;
69046;SDS011;57261;47.504;19.084;2022-11-14T15:57:51;28.92;;;18.55;;
69046;SDS011;57261;47.504;19.084;2022-11-14T16:00:52;28.53;;;17.83;;
69046;SDS011;57261;47.504;19.084;2022-11-14T16:03:53;28.70;;;18.65;;
69046;SDS011;57261;47.504;19.084;2022-11-14T16:06:53;31.93;;;18.73;;
69046;SDS011;57261;47.504;19.084;2022-11-14T16:09:54;29.77;;;18.20;;
69046;SDS011;57261;47.504;19.084;2022-11-14T16:12:54;28.77;;;18.27;;
69046;SDS011;57261;47.504;19.084;2022-11-14T16:15:54;30.70;;;18.53;;
69046;SDS011;57261;47.504;19.084;2022-11-14T16:18:55;32.20;;;20.20;;
69046;SDS011;57261;47.504;19.084;2022-11-14T16:21:59;31.25;;;19.67;;
69046;SDS011;57261;47.504;19.084;2022-11-14T16:25:02;30.03;;;18.80;;
69046;SDS011;57261;47.504;19.084;2022-11-14T16:28:02;31.20;;;19.60;;
69046;SDS011;57261;47.504;19.084;2022-11-14T16:31:04;31.93;;;19.10;;
69046;SDS011;57261;47.504;19.084;2022-11-14T16:34:18;32.83;;;19.37;;
69046;SDS011;57261;47.504;19.084;2022-11-14T16:37:20;36.67;;;19.50;;
69046;SDS011;57261;47.504;19.084;2022-11-14T16:40:23;29.80;;;19.27;;
69046;SDS011;57261;47.504;19.084;2022-11-14T16:43:28;34.03;;;20.15;;
69046;SDS011;57261;47.504;19.084;2022-11-14T16:46:28;34.13;;;20.97;;
69046;SDS011;57261;47.504;19.084;2022-11-14T16:49:28;31.13;;;20.27;;
69046;SDS011;57261;47.504;19.084;2022-11-14T16:52:30;33.25;;;20.52;;
69046;SDS011;57261;47.504;19.084;2022-11-14T16:55:31;30.50;;;19.87;;
69046;SDS011;57261;47.504;19.084;2022-11-14T16:58:33;34.53;;;21.35;;
69046;SDS011;57261;47.504;19.084;2022-11-14T17:01:33;34.10;;;21.37;;
69046;SDS011;57261;47.504;19.084;2022-11-14T17:04:34;34.70;;;20.87;;
69046;SDS011;57261;47.504;19.084;2022-11-14T17:07:34;34.00;;;21.37;;
69046;SDS011;57261;47.504;19.084;2022-11-14T17:10:41;36.47;;;21.88;;
69046;SDS011;57261;47.504;19.084;2022-11-14T17:13:43;33.55;;;21.33;;
69046;SDS011;57261;47.504;19.084;2022-11-14T17:16:44;32.78;;;20.83;;
69046;SDS011;57261;47.504;19.084;2022-11-14T17:19:45;35.90;;;22.13;;
69046;SDS011;57261;47.504;19.084;2022-11-14T17:22:47;37.20;;;23.20;;
69046;SDS011;57261;47.504;19.084;2022-11-14T17:25:48;37.20;;;22.37;;
69046;SDS011;57261;47.504;19.084;2022-11-14T17:28:48;35.83;;;22.27;;
69046;SDS011;57261;47.504;19.084;2022-11-14T17:31:48;36.00;;;22.45;;
69046;SDS011;57261;47.504;19.084;2022-11-14T17:34:49;39.03;;;23.97;;
69046;SDS011;57261;47.504;19.084;2022-11-14T17:37:49;37.60;;;23.20;;
69046;SDS011;57261;47.504;19.084;2022-11-14T17:40:55;38.70;;;24.63;;
69046;SDS011;57261;47.504;19.084;2022-11-14T17:43:56;40.75;;;25.60;;
69046;SDS011;57261;47.504;19.084;2022-11-14T17:46:57;39.30;;;24.45;;
69046;SDS011;57261;47.504;19.084;2022-11-14T17:49:58;37.22;;;24.35;;
69046;SDS011;57261;47.504;19.084;2022-11-14T17:52:58;38.37;;;23.33;;
69046;SDS011;57261;47.504;19.084;2022-11-14T17:55:59;38.47;;;24.43;;
69046;SDS011;57261;47.504;19.084;2022-11-14T17:58:59;39.30;;;24.37;;
69046;SDS011;57261;47.504;19.084;2022-11-14T18:01:59;41.30;;;24.37;;
69046;SDS011;57261;47.504;19.084;2022-11-14T18:05:01;38.17;;;24.83;;
69046;SDS011;57261;47.504;19.084;2022-11-14T18:08:01;37.90;;;23.77;;
69046;SDS011;57261;47.504;19.084;2022-11-14T18:11:03;40.10;;;25.00;;
69046;SDS011;57261;47.504;19.084;2022-11-14T18:14:05;37.95;;;24.95;;
69046;SDS011;57261;47.504;19.084;2022-11-14T18:17:05;39.13;;;25.40;;
69046;SDS011;57261;47.504;19.084;2022-11-14T18:20:06;39.58;;;24.67;;
69046;SDS011;57261;47.504;19.084;2022-11-14T18:23:08;37.70;;;24.98;;
69046;SDS011;57261;47.504;19.084;2022-11-14T18:26:13;39.43;;;25.27;;
69046;SDS011;57261;47.504;19.084;2022-11-14T18:29:17;43.13;;;27.10;;
69046;SDS011;57261;47.504;19.084;2022-11-14T18:32:17;41.77;;;25.27;;
69046;SDS011;57261;47.504;19.084;2022-11-14T18:35:17;40.80;;;26.38;;
69046;SDS011;57261;47.504;19.084;2022-11-14T18:38:18;40.40;;;25.47;;
69046;SDS011;57261;47.504;19.084;2022-11-14T18:41:19;44.03;;;27.17;;
69046;SDS011;57261;47.504;19.084;2022-11-14T18:44:20;41.65;;;26.13;;
69046;SDS011;57261;47.504;19.084;2022-11-14T18:47:23;40.07;;;24.57;;
69046;SDS011;57261;47.504;19.084;2022-11-14T18:50:23;38.80;;;24.67;;
69046;SDS011;57261;47.504;19.084;2022-11-14T18:53:29;40.63;;;25.33;;
69046;SDS011;57261;47.504;19.084;2022-11-14T18:56:33;40.33;;;25.98;;
69046;SDS011;57261;47.504;19.084;2022-11-14T18:59:33;38.90;;;24.77;;
69046;SDS011;57261;47.504;19.084;2022-11-14T19:02:34;44.20;;;25.93;;
69046;SDS011;57261;47.504;19.084;2022-11-14T19:05:34;38.42;;;24.85;;
69046;SDS011;57261;47.504;19.084;2022-11-14T19:08:35;41.30;;;24.87;;
69046;SDS011;57261;47.504;19.084;2022-11-14T19:11:36;41.45;;;25.17;;
69046;SDS011;57261;47.504;19.084;2022-11-14T19:14:55;40.17;;;24.13;;
69046;SDS011;57261;47.504;19.084;2022-11-14T19:17:55;40.47;;;25.08;;